createdAt,value
2023-05-10T00:00:11.003Z,13.70
2023-05-10T00:04:17.782Z,13.70
2023-05-10T00:08:24.525Z,13.70
2023-05-10T00:12:31.205Z,13.70
2023-05-10T00:16:38.005Z,13.50
2023-05-10T00:20:46.927Z,13.80
2023-05-10T00:24:53.607Z,13.70
2023-05-10T00:29:00.812Z,13.70
2023-05-10T00:33:07.923Z,13.70
2023-05-10T00:37:14.644Z,13.70
2023-05-10T00:41:22.105Z,13.70
2023-05-10T00:45:28.811Z,13.70
2023-05-10T00:49:36.726Z,13.70
2023-05-10T00:53:45.165Z,13.70
2023-05-10T00:57:51.895Z,13.70
2023-05-10T01:01:59.381Z,13.70
2023-05-10T01:06:06.431Z,13.70
2023-05-10T01:10:13.297Z,13.70
2023-05-10T01:14:21.008Z,13.70
2023-05-10T01:18:28.996Z,13.70
2023-05-10T01:22:38.639Z,13.80
2023-05-10T01:27:15.736Z,13.70
2023-05-10T01:31:48.911Z,13.70
2023-05-10T01:36:04.430Z,13.70
2023-05-10T01:40:32.784Z,13.80
2023-05-10T01:44:56.821Z,13.70
2023-05-10T01:49:08.802Z,13.70
2023-05-10T01:53:19.855Z,13.70
2023-05-10T01:57:32.330Z,13.70
2023-05-10T02:01:39.934Z,13.70
2023-05-10T02:05:47.734Z,13.80
2023-05-10T02:09:55.827Z,13.80
2023-05-10T02:14:03.273Z,13.80
2023-05-10T02:18:12.740Z,13.80
2023-05-10T02:22:20.820Z,13.80
2023-05-10T02:26:28.573Z,13.80
2023-05-10T02:30:36.143Z,13.80
2023-05-10T02:34:45.698Z,13.90
2023-05-10T02:38:54.034Z,13.90
2023-05-10T02:43:03.528Z,13.90
2023-05-10T02:47:10.561Z,13.90
2023-05-10T02:51:19.026Z,14.00
2023-05-10T02:55:33.311Z,14.00
2023-05-10T02:59:40.974Z,14.00
2023-05-10T03:03:47.622Z,14.00
2023-05-10T03:07:55.493Z,14.00
2023-05-10T03:12:12.662Z,14.00
2023-05-10T03:16:30.361Z,14.00
2023-05-10T03:20:44.069Z,14.00
2023-05-10T03:24:52.021Z,14.00
2023-05-10T03:28:59.995Z,14.00
2023-05-10T03:33:07.479Z,14.00
2023-05-10T03:37:14.321Z,13.90
2023-05-10T03:41:21.595Z,13.90
2023-05-10T03:45:28.302Z,13.90
2023-05-10T03:49:34.969Z,13.90
2023-05-10T03:53:41.797Z,14.00
2023-05-10T03:57:50.474Z,14.00
2023-05-10T04:01:57.379Z,14.00
2023-05-10T04:06:04.402Z,14.00
2023-05-10T04:10:12.073Z,14.00
2023-05-10T04:14:18.856Z,14.00
2023-05-10T04:18:25.526Z,14.00
2023-05-10T04:22:33.263Z,14.00
2023-05-10T04:26:39.971Z,14.00
2023-05-10T04:30:46.867Z,14.00
2023-05-10T04:34:54.041Z,14.00
2023-05-10T04:39:00.758Z,14.00
2023-05-10T04:43:07.429Z,14.00
2023-05-10T04:47:14.509Z,14.00
2023-05-10T04:51:21.511Z,13.90
2023-05-10T04:55:28.208Z,14.00
2023-05-10T04:59:38.394Z,14.00
2023-05-10T05:03:45.242Z,14.10
2023-05-10T05:07:51.999Z,14.10
2023-05-10T05:11:59.184Z,14.00
2023-05-10T05:16:06.676Z,14.00
2023-05-10T05:20:14.200Z,14.10
2023-05-10T05:24:20.911Z,14.10
2023-05-10T05:28:27.639Z,14.00
2023-05-10T05:32:34.481Z,14.00
2023-05-10T05:36:41.235Z,14.00
2023-05-10T05:40:47.933Z,14.10
2023-05-10T05:44:54.558Z,14.10
2023-05-10T05:49:01.260Z,14.10
2023-05-10T05:53:07.930Z,14.20
2023-05-10T05:57:14.679Z,14.20
2023-05-10T06:01:22.076Z,14.20
2023-05-10T06:05:28.718Z,14.20
2023-05-10T06:09:35.397Z,14.20
2023-05-10T06:13:43.321Z,14.30
2023-05-10T06:17:52.893Z,14.40
2023-05-10T06:21:59.590Z,14.40
2023-05-10T06:26:06.290Z,14.50
2023-05-10T06:30:14.388Z,14.40
2023-05-10T06:34:21.407Z,14.50
2023-05-10T06:38:28.287Z,14.50
2023-05-10T06:42:35.055Z,14.40
2023-05-10T06:46:42.698Z,14.40
2023-05-10T06:50:49.774Z,14.40
2023-05-10T06:54:56.448Z,14.30
2023-05-10T06:59:03.904Z,14.30
2023-05-10T07:03:11.742Z,14.30
2023-05-10T07:07:18.937Z,14.40
2023-05-10T07:11:25.617Z,14.40
2023-05-10T07:15:32.638Z,14.50
2023-05-10T07:19:39.289Z,14.50
2023-05-10T07:23:46.075Z,14.50
2023-05-10T07:27:52.707Z,14.50
2023-05-10T07:31:59.380Z,14.40
2023-05-10T07:36:06.253Z,14.40
2023-05-10T07:40:12.966Z,14.40
2023-05-10T07:44:21.217Z,14.50
2023-05-10T07:48:27.945Z,14.70
2023-05-10T07:52:34.613Z,14.80
2023-05-10T07:56:45.756Z,14.60
2023-05-10T08:00:52.503Z,14.70
2023-05-10T08:04:59.316Z,14.60
2023-05-10T08:09:06.202Z,14.50
2023-05-10T08:13:12.879Z,14.50
2023-05-10T08:17:20.280Z,14.40
2023-05-10T08:21:27.585Z,14.40
2023-05-10T08:25:34.265Z,14.60
2023-05-10T08:29:49.681Z,14.70
2023-05-10T08:33:57.242Z,15.00
2023-05-10T08:38:03.919Z,15.30
2023-05-10T08:42:11.395Z,15.70
2023-05-10T08:46:19.839Z,16.10
2023-05-10T08:50:26.858Z,16.50
2023-05-10T08:54:34.424Z,16.30
2023-05-10T08:58:41.162Z,16.00
2023-05-10T09:02:50.002Z,15.60
2023-05-10T09:06:56.891Z,15.40
2023-05-10T09:11:04.002Z,15.40
2023-05-10T09:15:11.499Z,15.50
2023-05-10T09:19:18.229Z,15.40
2023-05-10T09:23:29.554Z,15.40
2023-05-10T09:27:37.070Z,15.40
2023-05-10T09:31:52.444Z,15.40
2023-05-10T09:36:09.128Z,15.30
2023-05-10T09:40:30.264Z,15.60
2023-05-10T09:44:37.280Z,15.50
2023-05-10T09:48:46.763Z,15.50
2023-05-10T09:52:59.480Z,15.50
2023-05-10T09:57:06.239Z,15.60
2023-05-10T10:01:15.964Z,15.60
2023-05-10T10:05:34.123Z,15.70
2023-05-10T10:09:41.122Z,15.70
2023-05-10T10:13:48.115Z,15.50
2023-05-10T10:17:55.539Z,15.10
2023-05-10T10:22:02.414Z,15.10
2023-05-10T10:26:09.230Z,15.20
2023-05-10T10:30:44.680Z,15.40
2023-05-10T10:34:51.699Z,15.70
2023-05-10T10:39:02.586Z,16.00
2023-05-10T10:43:28.684Z,16.30
2023-05-10T10:47:35.949Z,16.40
2023-05-10T10:52:21.300Z,16.50
2023-05-10T10:56:28.509Z,16.40
2023-05-10T11:00:41.025Z,16.60
2023-05-10T11:04:48.293Z,16.80
2023-05-10T11:08:55.665Z,16.70
2023-05-10T11:13:03.557Z,16.60
2023-05-10T11:17:30.245Z,16.70
2023-05-10T11:22:12.347Z,16.90
2023-05-10T11:26:19.454Z,16.80
2023-05-10T11:30:26.270Z,16.70
2023-05-10T11:34:36.350Z,16.70
2023-05-10T11:38:43.552Z,16.90
2023-05-10T11:42:50.269Z,17.40
2023-05-10T11:47:02.780Z,17.60
2023-05-10T11:51:10.388Z,18.10
2023-05-10T11:55:17.165Z,18.20
2023-05-10T11:59:23.898Z,18.30
2023-05-10T12:03:31.239Z,18.30
2023-05-10T12:07:38.128Z,18.70
2023-05-10T12:11:44.849Z,19.20
2023-05-10T12:15:51.563Z,19.40
2023-05-10T12:20:21.534Z,19.30
2023-05-10T12:24:28.209Z,19.50
2023-05-10T12:28:35.134Z,19.50
2023-05-10T12:32:43.159Z,19.30
2023-05-10T12:36:53.326Z,19.40
2023-05-10T12:41:02.435Z,19.30
2023-05-10T12:45:09.766Z,19.40
2023-05-10T12:49:16.429Z,19.20
2023-05-10T12:53:23.156Z,19.00
2023-05-10T12:57:30.075Z,18.60
2023-05-10T13:01:36.778Z,18.50
2023-05-10T13:05:43.521Z,18.50
2023-05-10T13:09:50.306Z,18.40
2023-05-10T13:13:56.940Z,18.40
2023-05-10T13:18:03.705Z,18.20
2023-05-10T13:22:10.378Z,18.40
2023-05-10T13:26:17.120Z,18.60
2023-05-10T13:30:24.780Z,18.80
2023-05-10T13:34:31.381Z,19.00
2023-05-10T13:38:38.319Z,19.00
2023-05-10T13:42:45.459Z,18.90
2023-05-10T13:46:52.375Z,18.90
2023-05-10T13:50:59.043Z,19.10
2023-05-10T13:55:06.136Z,19.20
2023-05-10T13:59:12.870Z,19.10
2023-05-10T14:03:19.632Z,19.40
2023-05-10T14:07:27.033Z,19.60
2023-05-10T14:11:33.813Z,19.90
2023-05-10T14:15:40.429Z,20.30
2023-05-10T14:19:47.033Z,20.40
2023-05-10T14:23:53.695Z,20.50
2023-05-10T14:28:00.312Z,20.50
2023-05-10T14:32:07.411Z,20.10
2023-05-10T14:36:14.437Z,20.00
2023-05-10T14:40:22.194Z,19.90
2023-05-10T14:44:29.233Z,19.70
2023-05-10T14:48:36.101Z,19.80
2023-05-10T14:52:42.722Z,19.60
2023-05-10T14:56:51.094Z,19.50
2023-05-10T15:00:58.104Z,19.30
2023-05-10T15:05:05.581Z,19.00
2023-05-10T15:09:12.458Z,18.80
2023-05-10T15:13:19.113Z,18.40
2023-05-10T15:17:25.714Z,18.10
2023-05-10T15:21:38.472Z,18.00
2023-05-10T15:25:45.186Z,17.80
2023-05-10T15:29:51.855Z,18.20
2023-05-10T15:34:01.756Z,17.30
2023-05-10T15:38:10.138Z,16.90
2023-05-10T15:42:17.090Z,16.70
2023-05-10T15:46:23.821Z,16.50
2023-05-10T15:50:30.589Z,16.40
2023-05-10T15:54:37.283Z,16.30
2023-05-10T15:58:44.602Z,16.30
2023-05-10T16:02:54.105Z,17.40
2023-05-10T16:07:00.936Z,16.40
2023-05-10T16:11:08.048Z,16.40
2023-05-10T16:15:15.045Z,16.80
2023-05-10T16:19:22.423Z,16.50
2023-05-10T16:23:29.530Z,17.00
2023-05-10T16:27:36.489Z,16.40
2023-05-10T16:31:43.238Z,16.30
2023-05-10T16:35:49.927Z,16.30
2023-05-10T16:39:56.694Z,16.30
2023-05-10T16:44:03.808Z,16.40
2023-05-10T16:48:10.622Z,16.50
2023-05-10T16:52:17.442Z,16.60
2023-05-10T16:56:24.396Z,16.70
2023-05-10T17:00:31.124Z,16.80
2023-05-10T17:04:38.067Z,16.70
2023-05-10T17:08:44.887Z,16.50
2023-05-10T17:12:51.560Z,16.40
2023-05-10T17:16:58.297Z,16.30
2023-05-10T17:21:05.060Z,16.20
2023-05-10T17:25:11.819Z,16.10
2023-05-10T17:29:18.491Z,16.00
2023-05-10T17:33:25.438Z,15.90
2023-05-10T17:37:35.051Z,16.40
2023-05-10T17:41:41.754Z,15.90
2023-05-10T17:45:49.863Z,15.90
2023-05-10T17:49:56.603Z,15.90
2023-05-10T17:54:03.493Z,15.30
2023-05-10T17:58:11.872Z,16.10
2023-05-10T18:02:18.516Z,16.10
2023-05-10T18:06:25.338Z,16.20
2023-05-10T18:10:32.319Z,16.10
2023-05-10T18:14:41.945Z,16.10
2023-05-10T18:18:49.015Z,16.40
2023-05-10T18:22:57.847Z,16.00
2023-05-10T18:27:05.858Z,16.40
2023-05-10T18:31:12.821Z,15.90
2023-05-10T18:35:19.858Z,15.70
2023-05-10T18:39:26.740Z,15.70
2023-05-10T18:43:36.439Z,15.60
2023-05-10T18:47:43.206Z,15.40
2023-05-10T18:51:49.886Z,15.30
2023-05-10T18:56:00.842Z,15.20
2023-05-10T19:00:12.235Z,15.20
2023-05-10T19:04:19.011Z,15.20
2023-05-10T19:08:25.837Z,15.10
2023-05-10T19:12:32.529Z,15.10
2023-05-10T19:16:40.495Z,15.00
2023-05-10T19:20:48.335Z,15.00
2023-05-10T19:24:56.985Z,15.00
2023-05-10T19:29:03.655Z,15.00
2023-05-10T19:33:12.485Z,14.80
2023-05-10T19:37:19.231Z,14.80
2023-05-10T19:41:26.166Z,14.70
2023-05-10T19:45:34.890Z,14.60
2023-05-10T19:49:41.650Z,14.60
2023-05-10T19:53:48.412Z,14.60
2023-05-10T19:57:55.339Z,14.50
2023-05-10T20:02:02.277Z,14.50
2023-05-10T20:06:09.082Z,14.80
2023-05-10T20:10:17.029Z,14.50
2023-05-10T20:14:23.751Z,14.40
2023-05-10T20:18:31.506Z,14.40
2023-05-10T20:22:38.179Z,14.50
2023-05-10T20:26:44.818Z,14.40
2023-05-10T20:30:53.335Z,14.40
2023-05-10T20:35:00.149Z,14.40
2023-05-10T20:39:06.844Z,14.40
2023-05-10T20:43:13.566Z,14.40
2023-05-10T20:47:20.382Z,14.30
2023-05-10T20:51:28.889Z,14.20
2023-05-10T20:55:35.586Z,14.20
2023-05-10T20:59:42.904Z,14.20
2023-05-10T21:03:49.535Z,14.30
2023-05-10T21:07:56.385Z,14.30
2023-05-10T21:12:03.397Z,14.30
2023-05-10T21:16:10.098Z,14.30
2023-05-10T21:20:17.145Z,14.40
2023-05-10T21:24:23.993Z,14.30
2023-05-10T21:28:30.742Z,14.30
2023-05-10T21:32:37.448Z,14.30
2023-05-10T21:36:44.164Z,14.30
2023-05-10T21:40:50.950Z,14.30
2023-05-10T21:44:57.641Z,14.30
2023-05-10T21:49:04.357Z,14.20
2023-05-10T21:53:11.767Z,14.20
2023-05-10T21:57:18.429Z,14.20
2023-05-10T22:01:25.342Z,14.20
2023-05-10T22:05:32.108Z,14.30
2023-05-10T22:09:38.786Z,14.20
2023-05-10T22:13:45.441Z,14.10
2023-05-10T22:17:52.216Z,14.00
2023-05-10T22:21:58.897Z,14.00
2023-05-10T22:26:05.600Z,14.10
2023-05-10T22:30:12.584Z,14.00
2023-05-10T22:34:19.201Z,14.00
2023-05-10T22:38:26.173Z,13.20
2023-05-10T22:42:33.495Z,14.00
2023-05-10T22:46:40.229Z,14.00
2023-05-10T22:50:47.049Z,14.10
2023-05-10T22:54:53.707Z,14.10
2023-05-10T22:59:00.430Z,14.10
2023-05-10T23:03:07.136Z,14.10
2023-05-10T23:07:13.919Z,14.10
2023-05-10T23:11:21.817Z,14.00
2023-05-10T23:15:28.504Z,14.10
2023-05-10T23:19:35.171Z,14.00
2023-05-10T23:23:41.809Z,14.10
2023-05-10T23:27:48.515Z,14.10
2023-05-10T23:31:55.244Z,14.10
2023-05-10T23:36:01.926Z,14.10
2023-05-10T23:40:09.227Z,14.10
2023-05-10T23:44:15.977Z,14.10
2023-05-10T23:48:23.198Z,14.10
2023-05-10T23:52:29.880Z,14.10
2023-05-10T23:56:36.612Z,14.10
